EGFF/CWL METAR and TAF weather

Enter ICAO airport designator
Station Type Date Time Source
EGFF METAR 2018/04/21 20:50 UTC NOAA

EGFF 212050Z 16008KT 9999 FEW025CB 14/11 Q1013


Station Type Date Time Source
EGFF Decoded METAR 2018/04/21 20:50 UTC NOAA

Cardiff-Wales Airport, United Kingdom (EGFF) 51-24N 003-21W 0M
Apr 21, 2018 - 04:50 PM EDT / 2018.04.21 2050 UTC
Wind: from the SSE (160 degrees) at 9 MPH (8 KT):0
Visibility: greater than 7 mile(s):0
Sky conditions: mostly clear
Weather: Cumulonimbus clouds observed
Temperature: 57 F (14 C)
Dew Point: 51 F (11 C)
Relative Humidity: 82%
Pressure (altimeter): 29.91 in. Hg (1013 hPa)
ob: EGFF 212050Z 16008KT 9999 FEW025CB 14/11 Q1013
cycle: 21

Station Type Date Time Source
EGFF TAF 2018/04/21 18:15 UTC NOAA

TAF EGFF 211700Z 2118/2218 10007KT 9999 FEW045 PROB30
TEMPO 2118/2120 5000 +SHRA TSGR
TEMPO 2121/2208 8000
BECMG 2203/2206 28011KT PROB30
TEMPO 2209/2212 7000 RA
TEMPO 2212/2215 BKN009


Example: see airport list